• Join FlightAware (Why Join?)
  • Login
  • US Flag 
10:50PM EDT


 

Airport Tracker/Info


-or-


 

Live Flight TrackerFlight Track Log ✈ N980DS ✈ 29-Apr-2012 ✈ KPVG - KFAY

Flight Track Log - Related Links

Times and Time Zones

All times are in EDT time to prevent confusion due to time zone crossing. See the N980DS flight status page for this flight to view local times or setup timezone preferences in your user account.

Time Position Orientation Groundspeed Altitude Reporting Facility
EDT Latitude Longitude Course Direction KTS MPH feet Rate Location/Type
07:39PM 36.7625 -76.4217 223° Southwest 80 92 1,600  Level Washington Center
07:39PM 36.7561 -76.4292 228° Southwest 77 89 1,900 600 Climbing Washington Center
07:40PM 36.7392 -76.4525 227° Southwest 88 101 2,600 720 Climbing Washington Center
07:41PM 36.7203 -76.4781 235° Southwest 91 105 3,400 660 Climbing Washington Center
07:42PM 36.7056 -76.5039 227° Southwest 91 105 4,000 240 Climbing Washington Center
07:43PM 36.6803 -76.5372 227° Southwest 131 151 4,000  Level Washington Center
07:44PM 36.6569 -76.5681 231° Southwest 133 153 4,000 -60 Level Washington Center
07:46PM 36.6275 -76.6142 227° Southwest 133 153 3,900 -60 Descending Washington Center
07:47PM 36.6042 -76.6450 229° Southwest 133 153 3,900  Level Washington Center
07:48PM 36.5808 -76.6783 232° Southwest 133 153 3,900 60 Level Washington Center
07:49PM 36.5597 -76.7117 230° Southwest 133 153 4,100 240 Climbing Washington Center
07:50PM 36.5408 -76.7397 224° Southwest 127 146 4,500 360 Climbing Washington Center
07:51PM 36.5217 -76.7628 230° Southwest 114 131 4,900 360 Climbing Washington Center
07:52PM 36.5047 -76.7883 227° Southwest 109 125 5,300 540 Climbing Washington Center
07:53PM 36.4836 -76.8164 230° Southwest 104 120 6,000 300 Climbing Washington Center
07:54PM 36.4644 -76.8444 229° Southwest 110 127 6,000  Level Washington Center
07:55PM 36.4392 -76.8803 230° Southwest 115 132 6,000 -60 Level Washington Center
07:56PM 36.4200 -76.9083 231° Southwest 123 142 5,900 -60 Descending Washington Center
07:57PM 36.3967 -76.9442 224° Southwest 130 150 5,900  Level Washington Center
07:58PM 36.3714 -76.9747 233° Southwest 130 150 5,900  Level Washington Center
07:59PM 36.3500 -77.0103 229° Southwest 130 150 5,900  Level Washington Center
08:00PM 36.3267 -77.0433 227° Southwest 135 155 5,900  Level Washington Center
08:01PM 36.3014 -77.0764 228° Southwest 135 155 5,900  Level Washington Center
08:02PM 36.2758 -77.1119 229° Southwest 135 155 5,900  Level Washington Center
08:03PM 36.2525 -77.1450 231° Southwest 135 155 6,000  Climbing Washington Center
08:04PM 36.2289 -77.1808 226° Southwest 135 155 6,000  Level Washington Center
08:05PM 36.2036 -77.2136 231° Southwest 135 155 6,000  Level Washington Center
08:06PM 36.1822 -77.2467 235° Southwest 135 155 6,000  Level Washington Center
08:07PM 36.1608 -77.2847 224° Southwest 135 155 6,000  Level Washington Center
08:08PM 36.1333 -77.3175 231° Southwest 135 155 6,000  Level Washington Center
08:09PM 36.1097 -77.3531 231° Southwest 129 148 6,000  Level Washington Center
08:10PM 36.0864 -77.3886 228° Southwest 134 154 6,000  Level Washington Center
08:11PM 36.0586 -77.4267 228° Southwest 134 154 6,000  Level Washington Center
08:12PM 36.0331 -77.4619 224° Southwest 134 154 6,000  Level Washington Center
08:13PM 36.0075 -77.4922 228° Southwest 129 148 6,000  Level Washington Center
08:14PM 35.9819 -77.5275 228° Southwest 134 154 6,000  Level Washington Center
08:15PM 35.9564 -77.5628 231° Southwest 134 154 6,000  Level Washington Center
08:16PM 35.9347 -77.5956 228° Southwest 134 154 6,000  Level Washington Center
08:17PM 35.9092 -77.6308 228° Southwest 134 154 6,000  Level Washington Center
08:18PM 35.8836 -77.6661 230° Southwest 134 154 6,000  Level Washington Center
08:19PM 35.8600 -77.7014 226° Southwest 134 154 6,000  Level Washington Center
08:20PM 35.8364 -77.7314 226° Southwest 134 154 6,000  Level Washington Center
08:20PM 35.8108 -77.7639 226° Southwest 135 155 6,000  Level Washington Center
08:21PM 35.7831 -77.7992 234° Southwest 134 154 6,000  Level Washington Center
08:23PM 35.7636 -77.8319 228° Southwest 134 154 6,000  Level Washington Center
08:23PM 35.7358 -77.8694 228° Southwest 133 153 6,000  Level Washington Center
08:24PM 35.7122 -77.9019 228° Southwest 134 154 6,000  Level Washington Center
08:25PM 35.6844 -77.9394 231° Southwest 134 154 6,000  Level Washington Center
08:26PM 35.6631 -77.9722 225° Southwest 135 155 6,000  Level Washington Center
08:27PM 35.6350 -78.0072 225° Southwest 135 155 6,000  Level Washington Center
08:29PM 35.6072 -78.0419 233° Southwest 135 155 6,000  Level Washington Center
08:30PM 35.5858 -78.0772 228° Southwest 134 154 6,000  Level Washington Center
08:31PM 35.5600 -78.1119 226° Southwest 134 154 6,000  Level Washington Center
08:32PM 35.5342 -78.1444 230° Southwest 134 154 6,000  Level Washington Center
08:33PM 35.5106 -78.1794 228° Southwest 134 154 6,000  Level Washington Center
08:34PM 35.4847 -78.2142 226° Southwest 135 155 6,000  Level Washington Center
08:35PM 35.4589 -78.2467 232° Southwest 135 155 6,000  Level Washington Center
08:36PM 35.4331 -78.2867 228° Southwest 135 155 6,000  Level Washington Center
08:37PM 35.4114 -78.3164 223° Southwest 134 154 6,000  Level Washington Center
08:38PM 35.3814 -78.3511 234° Southwest 135 155 6,000  Level Washington Center
08:39PM 35.3619 -78.3833 226° Southwest 134 154 6,000  Level Washington Center
08:46PM 35.1931 -78.5982 226° Southwest  Level FlightAware Approximate
08:47PM 35.1694 -78.6282 227° Southwest  Level FlightAware Approximate
08:48PM 35.1464 -78.6588 226° Southwest  Level FlightAware Approximate
08:49PM 35.1225 -78.6886 226° Southwest  Level FlightAware Approximate
08:50PM 35.0987 -78.7184 226° Southwest  Level FlightAware Approximate
08:51PM 35.0749 -78.7482 226° Southwest  Level FlightAware Approximate
08:52PM 35.0510 -78.7779 226° Southwest  Level FlightAware Approximate
08:53PM 35.0274 -78.8079 239° Southwest  Level FlightAware Approximate
08:54PM 35.0096 -78.8435 239° Southwest  Level Estimated
08:55PM 34.9919 -78.8790 239° Southwest  Level Estimated